createdAt,value
2018-03-08T00:02:23.686Z,51.80
2018-03-08T00:04:51.454Z,72.10
2018-03-08T00:07:19.262Z,52.62
2018-03-08T00:09:47.015Z,42.42
2018-03-08T00:12:14.777Z,39.45
2018-03-08T00:14:42.597Z,36.33
2018-03-08T00:17:10.346Z,33.63
2018-03-08T00:19:38.098Z,31.05
2018-03-08T00:22:05.915Z,29.77
2018-03-08T00:24:33.679Z,32.83
2018-03-08T00:27:01.438Z,33.28
2018-03-08T00:29:29.242Z,30.75
2018-03-08T00:31:57.754Z,33.90
2018-03-08T00:34:25.508Z,26.98
2018-03-08T00:36:53.310Z,32.25
2018-03-08T00:39:21.063Z,30.65
2018-03-08T00:41:49.587Z,30.12
2018-03-08T00:44:18.163Z,28.83
2018-03-08T00:46:46.693Z,30.55
2018-03-08T00:49:14.442Z,28.12
2018-03-08T00:51:42.254Z,28.67
2018-03-08T00:54:10.014Z,29.73
2018-03-08T00:56:38.562Z,28.95
2018-03-08T00:59:06.370Z,28.40
2018-03-08T01:01:34.889Z,29.05
2018-03-08T01:04:02.638Z,30.25
2018-03-08T01:06:30.442Z,29.37
2018-03-08T01:08:58.200Z,31.10
2018-03-08T01:11:25.949Z,29.70
2018-03-08T01:13:53.761Z,30.45
2018-03-08T01:16:22.280Z,28.02
2018-03-08T01:18:50.032Z,26.58
2018-03-08T01:21:17.838Z,28.67
2018-03-08T01:23:45.600Z,26.62
2018-03-08T01:26:13.355Z,28.48
2018-03-08T01:28:41.165Z,27.45
2018-03-08T01:31:08.919Z,28.00
2018-03-08T01:33:37.434Z,27.73
2018-03-08T01:36:05.266Z,25.55
2018-03-08T01:38:33.026Z,28.30
2018-03-08T01:41:00.777Z,26.05
2018-03-08T01:43:29.527Z,25.10
2018-03-08T01:45:57.287Z,24.90
2018-03-08T01:48:25.045Z,25.12
2018-03-08T01:50:53.615Z,25.02
2018-03-08T01:53:21.364Z,26.30
2018-03-08T01:55:49.110Z,26.33
2018-03-08T01:58:16.920Z,29.25
2018-03-08T02:00:44.675Z,25.55
2018-03-08T02:03:12.434Z,27.75
2018-03-08T02:05:40.244Z,26.83
2018-03-08T02:08:08.783Z,28.15
2018-03-08T02:10:36.556Z,27.62
2018-03-08T02:13:04.355Z,27.98
2018-03-08T02:15:32.101Z,30.77
2018-03-08T02:18:00.618Z,31.50
2018-03-08T02:20:28.426Z,29.45
2018-03-08T02:22:56.185Z,24.92
2018-03-08T02:25:23.939Z,27.77
2018-03-08T02:27:51.742Z,27.33
2018-03-08T02:30:19.495Z,28.65
2018-03-08T02:32:48.024Z,27.95
2018-03-08T02:35:15.827Z,27.90
2018-03-08T02:37:44.361Z,27.95
2018-03-08T02:40:12.123Z,25.27
2018-03-08T02:42:39.953Z,28.20
2018-03-08T02:45:07.735Z,28.33
2018-03-08T02:47:35.501Z,29.48
2018-03-08T02:50:03.323Z,28.25
2018-03-08T02:52:31.842Z,30.98
2018-03-08T02:54:59.594Z,28.50
2018-03-08T02:57:27.399Z,26.83
2018-03-08T02:59:55.151Z,25.58
2018-03-08T03:02:22.911Z,27.27
2018-03-08T03:04:50.728Z,30.80
2018-03-08T03:07:18.486Z,29.70
2018-03-08T03:09:46.311Z,30.77
2018-03-08T03:12:14.123Z,28.92
2018-03-08T03:14:41.898Z,28.38
2018-03-08T03:17:09.671Z,27.17
2018-03-08T03:19:37.469Z,26.73
2018-03-08T03:22:05.227Z,27.02
2018-03-08T03:24:32.976Z,29.05
2018-03-08T03:27:01.546Z,25.95
2018-03-08T03:29:29.302Z,26.55
2018-03-08T03:31:57.055Z,27.17
2018-03-08T03:34:24.865Z,25.67
2018-03-08T03:36:52.621Z,24.63
2018-03-08T03:39:20.368Z,27.40
2018-03-08T03:41:48.187Z,24.17
2018-03-08T03:44:15.934Z,27.67
2018-03-08T03:46:44.451Z,29.05
2018-03-08T03:49:12.257Z,30.92
2018-03-08T03:51:40.013Z,32.13
2018-03-08T03:54:07.777Z,28.10
2018-03-08T03:56:35.578Z,25.92
2018-03-08T03:59:03.328Z,29.27
2018-03-08T04:01:31.079Z,23.75
2018-03-08T04:03:59.666Z,24.65
2018-03-08T04:06:28.188Z,25.60
2018-03-08T04:08:55.948Z,25.25
2018-03-08T04:11:23.778Z,26.27
2018-03-08T04:13:51.536Z,25.90
2018-03-08T04:16:19.292Z,24.30
2018-03-08T04:18:47.881Z,25.10
2018-03-08T04:21:15.659Z,25.70
2018-03-08T04:23:43.417Z,24.15
2018-03-08T04:26:11.222Z,25.60
2018-03-08T04:28:38.979Z,23.38
2018-03-08T04:31:07.517Z,24.58
2018-03-08T04:33:35.413Z,23.80
2018-03-08T04:36:03.258Z,27.17
2018-03-08T04:38:31.099Z,28.70
2018-03-08T04:40:58.976Z,29.75
2018-03-08T04:43:26.786Z,29.40
2018-03-08T04:45:54.595Z,29.90
2018-03-08T04:48:22.463Z,28.95
2018-03-08T04:50:50.277Z,25.12
2018-03-08T04:53:18.091Z,25.77
2018-03-08T04:55:45.962Z,25.88
2018-03-08T04:58:13.774Z,24.95
2018-03-08T05:00:41.612Z,26.37
2018-03-08T05:03:09.902Z,25.75
2018-03-08T05:05:37.731Z,27.08
2018-03-08T05:08:05.576Z,25.62
2018-03-08T05:10:33.441Z,24.02
2018-03-08T05:13:01.255Z,25.60
2018-03-08T05:15:29.064Z,23.73
2018-03-08T05:17:56.934Z,26.62
2018-03-08T05:20:24.755Z,25.85
2018-03-08T05:22:52.587Z,23.10
2018-03-08T05:25:20.458Z,25.55
2018-03-08T05:27:48.270Z,26.27
2018-03-08T05:30:16.881Z,25.58
2018-03-08T05:32:44.756Z,28.83
2018-03-08T05:35:12.568Z,24.40
2018-03-08T05:37:41.176Z,23.55
2018-03-08T05:40:09.041Z,27.60
2018-03-08T05:42:36.853Z,27.00
2018-03-08T05:45:04.673Z,24.10
2018-03-08T05:47:32.538Z,25.85
2018-03-08T05:50:00.351Z,26.73
2018-03-08T05:52:28.165Z,22.83
2018-03-08T05:54:56.051Z,25.88
2018-03-08T05:57:23.866Z,26.42
2018-03-08T05:59:52.439Z,24.45
2018-03-08T06:02:21.078Z,25.15
2018-03-08T06:04:48.905Z,23.50
2018-03-08T06:07:16.773Z,25.25
2018-03-08T06:09:44.658Z,26.23
2018-03-08T06:12:12.482Z,24.30
2018-03-08T06:14:41.096Z,24.15
2018-03-08T06:17:09.075Z,26.00
2018-03-08T06:19:36.913Z,21.95
2018-03-08T06:22:04.761Z,23.17
2018-03-08T06:24:33.395Z,23.45
2018-03-08T06:27:01.203Z,23.80
2018-03-08T06:29:29.794Z,23.48
2018-03-08T06:31:58.434Z,23.02
2018-03-08T06:34:26.246Z,29.63
2018-03-08T06:36:54.070Z,24.17
2018-03-08T06:39:21.942Z,23.55
2018-03-08T06:41:49.781Z,23.35
2018-03-08T06:44:17.586Z,22.35
2018-03-08T06:46:46.223Z,19.87
2018-03-08T06:49:14.040Z,19.70
2018-03-08T06:51:41.886Z,20.50
2018-03-08T06:54:10.560Z,24.58
2018-03-08T06:56:38.375Z,24.17
2018-03-08T06:59:06.204Z,24.02
2018-03-08T07:01:34.861Z,25.88
2018-03-08T07:04:02.765Z,27.85
2018-03-08T07:06:30.606Z,26.12
2018-03-08T07:08:58.487Z,23.73
2018-03-08T07:11:26.343Z,23.35
2018-03-08T07:13:54.945Z,24.25
2018-03-08T07:16:22.855Z,22.25
2018-03-08T07:18:50.695Z,23.80
2018-03-08T07:21:18.531Z,24.83
2018-03-08T07:23:46.454Z,23.30
2018-03-08T07:26:14.213Z,23.20
2018-03-08T07:28:41.962Z,24.63
2018-03-08T07:31:09.760Z,23.12
2018-03-08T07:33:38.275Z,23.35
2018-03-08T07:36:06.023Z,20.85
2018-03-08T07:38:33.830Z,19.52
2018-03-08T07:41:01.586Z,17.62
2018-03-08T07:43:29.344Z,16.30
2018-03-08T07:45:57.149Z,14.77
2018-03-08T07:48:25.686Z,17.30
2018-03-08T07:50:53.439Z,15.75
2018-03-08T07:53:21.243Z,17.40
2018-03-08T07:55:49.003Z,15.82
2018-03-08T07:58:16.755Z,14.70
2018-03-08T08:00:44.563Z,14.45
2018-03-08T08:03:12.318Z,14.38
2018-03-08T08:08:49.830Z,14.27
2018-03-08T08:11:17.648Z,13.80
2018-03-08T08:13:45.426Z,15.45
2018-03-08T08:16:13.966Z,15.25
2018-03-08T08:18:41.790Z,15.23
2018-03-08T08:21:09.581Z,16.20
2018-03-08T08:23:37.355Z,14.57
2018-03-08T08:26:05.179Z,13.80
2018-03-08T08:28:32.946Z,12.85
2018-03-08T08:31:00.710Z,13.55
2018-03-08T08:33:28.529Z,13.48
2018-03-08T08:35:56.293Z,14.45
2018-03-08T08:38:24.055Z,14.30
2018-03-08T08:40:51.893Z,15.25
2018-03-08T08:43:19.663Z,15.48
2018-03-08T08:45:47.475Z,13.93
2018-03-08T08:48:15.299Z,13.65
2018-03-08T08:50:43.066Z,13.25
2018-03-08T08:53:10.838Z,14.32
2018-03-08T08:55:39.431Z,15.90
2018-03-08T08:58:07.963Z,14.55
2018-03-08T09:00:35.745Z,14.00
2018-03-08T09:03:03.615Z,12.98
2018-03-08T09:05:31.377Z,14.43
2018-03-08T09:07:59.143Z,14.77
2018-03-08T09:10:26.956Z,14.57
2018-03-08T09:12:54.720Z,16.27
2018-03-08T09:15:22.482Z,15.20
2018-03-08T09:17:50.308Z,15.02
2018-03-08T09:20:18.834Z,14.48
2018-03-08T09:22:47.364Z,15.02
2018-03-08T09:25:15.965Z,15.00
2018-03-08T09:27:43.754Z,15.45
2018-03-08T09:30:12.346Z,14.63
2018-03-08T09:32:40.171Z,14.65
2018-03-08T09:35:07.931Z,14.38
2018-03-08T09:37:35.700Z,15.20
2018-03-08T09:40:03.531Z,15.30
2018-03-08T09:42:32.071Z,14.80
2018-03-08T09:44:59.835Z,15.10
2018-03-08T09:47:28.415Z,15.63
2018-03-08T09:49:56.202Z,20.37
2018-03-08T09:52:23.967Z,15.98
2018-03-08T09:54:51.796Z,19.70
2018-03-08T09:57:19.567Z,19.00
2018-03-08T09:59:47.333Z,19.85
2018-03-08T10:02:15.174Z,16.42
2018-03-08T10:04:42.939Z,16.25
2018-03-08T10:07:10.710Z,15.77
2018-03-08T10:09:38.529Z,15.50
2018-03-08T10:12:07.067Z,15.05
2018-03-08T10:14:34.849Z,14.87
2018-03-08T10:17:02.691Z,15.68
2018-03-08T10:19:30.464Z,14.68
2018-03-08T10:21:58.238Z,15.32
2018-03-08T10:24:26.071Z,15.43
2018-03-08T10:26:53.855Z,14.80
2018-03-08T10:29:21.623Z,15.02
2018-03-08T10:31:49.437Z,13.62
2018-03-08T10:34:17.202Z,14.77
2018-03-08T10:36:44.974Z,13.35
2018-03-08T10:44:09.284Z,17.08
2018-03-08T10:46:37.122Z,16.25
2018-03-08T10:49:04.894Z,15.73
2018-03-08T10:51:32.673Z,14.25
2018-03-08T10:54:00.563Z,16.15
2018-03-08T10:56:28.334Z,14.82
2018-03-08T10:58:56.106Z,16.55
2018-03-08T11:01:25.438Z,16.05
2018-03-08T11:03:55.134Z,14.82
2018-03-08T11:06:28.823Z,13.50
2018-03-08T11:08:57.396Z,12.43
2018-03-08T11:11:25.943Z,11.25
2018-03-08T11:13:53.760Z,9.05
2018-03-08T11:16:21.524Z,9.88
2018-03-08T11:18:49.286Z,9.60
2018-03-08T11:21:17.117Z,9.20
2018-03-08T11:23:44.894Z,11.20
2018-03-08T11:26:13.426Z,9.70
2018-03-08T11:28:41.256Z,12.77
2018-03-08T11:31:09.034Z,10.55
2018-03-08T11:33:36.803Z,11.25
2018-03-08T11:36:04.622Z,16.17
2018-03-08T11:38:33.192Z,9.73
2018-03-08T11:41:01.834Z,9.55
2018-03-08T11:43:30.362Z,9.40
2018-03-08T11:45:58.904Z,10.80
2018-03-08T11:48:26.692Z,10.70
2018-03-08T11:50:54.510Z,12.05
2018-03-08T11:53:22.279Z,12.85
2018-03-08T11:55:50.046Z,11.45
2018-03-08T11:58:17.866Z,13.88
2018-03-08T12:00:46.399Z,10.60
2018-03-08T12:03:14.162Z,12.32
2018-03-08T12:05:42.130Z,12.85
2018-03-08T12:08:09.901Z,13.07
2018-03-08T12:10:37.661Z,14.82
2018-03-08T12:13:05.506Z,12.52
2018-03-08T12:15:34.029Z,12.30
2018-03-08T12:18:02.593Z,12.55
2018-03-08T12:20:30.420Z,11.50
2018-03-08T12:22:58.202Z,12.15
2018-03-08T12:25:25.969Z,9.40
2018-03-08T12:27:53.800Z,13.02
2018-03-08T12:30:21.569Z,14.25
2018-03-08T12:32:49.330Z,12.27
2018-03-08T12:35:17.170Z,12.52
2018-03-08T12:37:44.941Z,13.27
2018-03-08T12:40:12.706Z,14.57
2018-03-08T12:42:40.527Z,13.18
2018-03-08T12:45:09.050Z,14.40
2018-03-08T12:47:36.815Z,13.93
2018-03-08T12:50:04.649Z,14.50
2018-03-08T12:52:32.415Z,13.02
2018-03-08T12:55:00.187Z,12.80
2018-03-08T12:57:28.015Z,12.60
2018-03-08T12:59:55.775Z,14.00
2018-03-08T13:02:24.301Z,14.13
2018-03-08T13:04:52.547Z,14.60
2018-03-08T13:07:21.076Z,15.20
2018-03-08T13:09:48.840Z,13.62
2018-03-08T13:12:16.678Z,14.27
2018-03-08T13:14:44.463Z,15.20
2018-03-08T13:17:12.282Z,14.85
2018-03-08T13:19:40.106Z,16.73
2018-03-08T13:22:07.878Z,13.60
2018-03-08T13:24:35.634Z,13.62
2018-03-08T13:27:03.455Z,14.52
2018-03-08T13:29:31.213Z,14.70
2018-03-08T13:31:59.624Z,14.73
2018-03-08T13:34:27.447Z,14.87
2018-03-08T13:36:55.207Z,16.23
2018-03-08T13:39:23.010Z,15.38
2018-03-08T13:41:50.848Z,18.23
2018-03-08T13:44:18.615Z,15.88
2018-03-08T13:46:46.386Z,15.50
2018-03-08T13:49:26.045Z,16.65
2018-03-08T13:51:53.821Z,15.85
2018-03-08T13:54:21.607Z,18.37
2018-03-08T13:56:50.202Z,18.15
2018-03-08T13:59:17.998Z,16.50
2018-03-08T14:01:45.766Z,16.98
2018-03-08T14:04:14.356Z,14.98
2018-03-08T14:06:42.138Z,14.63
2018-03-08T14:09:09.906Z,17.25
2018-03-08T14:11:38.494Z,17.10
2018-03-08T14:14:07.035Z,17.77
2018-03-08T14:16:34.807Z,16.60
2018-03-08T14:19:02.626Z,15.45
2018-03-08T14:21:30.391Z,17.20
2018-03-08T14:23:58.215Z,14.73
2018-03-08T14:26:26.799Z,14.40
2018-03-08T14:28:55.339Z,12.95
2018-03-08T14:31:23.111Z,18.70
2018-03-08T14:33:50.967Z,18.20
2018-03-08T14:36:18.734Z,16.45
2018-03-08T14:38:46.500Z,15.18
2018-03-08T14:41:14.352Z,15.20
2018-03-08T14:43:42.110Z,15.43
2018-03-08T14:46:09.874Z,14.60
2018-03-08T14:48:37.687Z,16.00
2018-03-08T14:51:06.223Z,15.88
2018-03-08T14:53:34.041Z,31.65
2018-03-08T14:56:01.872Z,30.85
2018-03-08T14:58:29.647Z,20.48
2018-03-08T15:00:57.410Z,18.15
2018-03-08T15:03:26.035Z,16.62
2018-03-08T15:05:53.809Z,15.63
2018-03-08T15:08:21.583Z,16.42
2018-03-08T15:10:49.407Z,13.65
2018-03-08T15:13:17.176Z,15.13
2018-03-08T15:15:44.963Z,14.57
2018-03-08T15:18:12.778Z,14.20
2018-03-08T15:20:40.556Z,13.68
2018-03-08T15:23:08.324Z,16.02
2018-03-08T15:25:36.154Z,15.73
2018-03-08T15:28:04.732Z,15.90
2018-03-08T15:30:33.272Z,14.45
2018-03-08T15:33:01.085Z,14.90
2018-03-08T15:35:29.619Z,16.60
2018-03-08T15:37:57.389Z,15.90
2018-03-08T15:40:25.215Z,14.60
2018-03-08T15:42:52.983Z,15.48
2018-03-08T15:45:20.749Z,14.63
2018-03-08T15:47:48.567Z,16.95
2018-03-08T15:50:17.102Z,15.40
2018-03-08T15:52:44.871Z,17.17
2018-03-08T15:55:12.694Z,17.10
2018-03-08T15:57:40.454Z,18.02
2018-03-08T16:00:08.228Z,17.75
2018-03-08T16:02:36.047Z,16.02
2018-03-08T16:05:04.829Z,17.02
2018-03-08T16:20:59.094Z,17.87
2018-03-08T16:23:26.850Z,18.75
2018-03-08T16:25:54.615Z,20.98
2018-03-08T16:28:22.427Z,21.17
2018-03-08T16:30:50.212Z,20.00
2018-03-08T16:33:17.971Z,17.08
2018-03-08T16:35:45.780Z,18.55
2018-03-08T16:38:14.308Z,19.92
2018-03-08T16:40:42.063Z,19.55
2018-03-08T16:43:09.879Z,21.40
2018-03-08T16:45:38.422Z,20.62
2018-03-08T16:48:06.186Z,23.98
2018-03-08T16:50:34.031Z,21.70
2018-03-08T16:53:01.780Z,22.92
2018-03-08T16:55:29.572Z,21.92
2018-03-08T16:57:57.388Z,22.45
2018-03-08T17:00:25.904Z,20.83
2018-03-08T17:02:53.658Z,22.83
2018-03-08T17:05:21.475Z,22.58
2018-03-08T17:07:49.272Z,24.85
2018-03-08T17:10:17.025Z,25.40
2018-03-08T17:12:44.825Z,28.73
2018-03-08T17:15:12.572Z,24.67
2018-03-08T17:17:40.331Z,27.77
2018-03-08T17:20:09.362Z,25.83
2018-03-08T17:22:37.163Z,28.87
2018-03-08T17:25:04.913Z,29.42
2018-03-08T17:27:33.492Z,29.45
2018-03-08T17:30:02.021Z,30.02
2018-03-08T17:32:29.783Z,29.90
2018-03-08T17:34:58.355Z,48.72
2018-03-08T17:37:26.118Z,37.90
2018-03-08T17:39:53.878Z,34.45
2018-03-08T17:42:21.717Z,33.28
2018-03-08T17:44:49.500Z,36.95
2018-03-08T17:47:17.250Z,37.47
2018-03-08T17:49:45.054Z,41.13
2018-03-08T17:52:12.804Z,38.50
2018-03-08T17:54:40.563Z,42.92
2018-03-08T17:57:08.386Z,41.72
2018-03-08T17:59:36.900Z,38.08
2018-03-08T18:02:04.678Z,37.78
2018-03-08T18:04:32.486Z,39.08
2018-03-08T18:07:00.998Z,39.35
2018-03-08T18:09:29.713Z,41.53
2018-03-08T18:11:58.434Z,41.35
2018-03-08T18:14:26.951Z,41.78
2018-03-08T18:16:54.710Z,40.90
2018-03-08T18:19:22.524Z,37.75
2018-03-08T18:21:51.109Z,35.25
2018-03-08T18:24:20.580Z,32.28
2018-03-08T18:26:48.471Z,30.15
2018-03-08T18:29:16.987Z,29.67
2018-03-08T18:31:44.755Z,26.15
2018-03-08T18:34:12.615Z,30.27
2018-03-08T18:36:40.378Z,32.25
2018-03-08T18:39:08.177Z,40.90
2018-03-08T18:41:35.997Z,36.45
2018-03-08T18:44:03.749Z,34.58
2018-03-08T18:46:31.499Z,35.45
2018-03-08T18:49:00.138Z,33.25
2018-03-08T18:51:27.905Z,32.88
2018-03-08T18:53:55.665Z,34.40
2018-03-08T18:56:24.252Z,33.42
2018-03-08T18:58:52.004Z,33.53
2018-03-08T19:01:19.764Z,36.63
2018-03-08T19:03:47.566Z,35.80
2018-03-08T19:06:16.189Z,34.40
2018-03-08T19:08:43.960Z,36.80
2018-03-08T19:11:11.768Z,34.10
2018-03-08T19:13:40.290Z,33.47
2018-03-08T19:16:08.039Z,28.55
2018-03-08T19:18:35.871Z,30.23
2018-03-08T19:21:04.391Z,29.23
2018-03-08T19:23:32.162Z,27.33
2018-03-08T19:25:59.976Z,27.98
2018-03-08T19:28:28.499Z,32.65
2018-03-08T19:30:56.256Z,30.20
2018-03-08T19:33:24.064Z,31.17
2018-03-08T19:35:51.820Z,30.52
2018-03-08T19:38:19.574Z,30.67
2018-03-08T19:40:48.371Z,28.73
2018-03-08T19:43:16.124Z,30.95
2018-03-08T19:45:43.872Z,31.05
2018-03-08T19:48:11.683Z,33.05
2018-03-08T19:50:40.203Z,32.58
2018-03-08T19:53:07.963Z,32.80
2018-03-08T19:55:35.906Z,35.55
2018-03-08T19:58:03.686Z,33.00
2018-03-08T20:00:31.435Z,32.88
2018-03-08T20:02:59.238Z,31.30
2018-03-08T20:05:26.991Z,33.35
2018-03-08T20:07:54.775Z,31.50
2018-03-08T20:10:22.593Z,33.30
2018-03-08T20:12:50.373Z,31.58
2018-03-08T20:15:18.131Z,33.72
2018-03-08T20:17:45.934Z,32.80
2018-03-08T20:20:14.462Z,34.65
2018-03-08T20:22:42.226Z,29.87
2018-03-08T20:25:10.034Z,34.50
2018-03-08T20:27:37.783Z,31.50
2018-03-08T20:30:05.754Z,30.40
2018-03-08T20:32:33.728Z,32.03
2018-03-08T20:35:01.514Z,30.45
2018-03-08T20:37:29.347Z,31.98
2018-03-08T20:39:57.154Z,30.52
2018-03-08T20:42:24.934Z,32.88
2018-03-08T20:44:52.685Z,29.83
2018-03-08T20:47:20.556Z,30.70
2018-03-08T20:49:48.340Z,30.73
2018-03-08T20:52:16.094Z,28.67
2018-03-08T20:54:43.903Z,28.33
2018-03-08T20:57:12.422Z,29.92
2018-03-08T20:59:40.187Z,29.50
2018-03-08T21:02:07.991Z,28.10
2018-03-08T21:04:35.753Z,28.10
2018-03-08T21:07:03.509Z,30.33
2018-03-08T21:09:31.319Z,31.25
2018-03-08T21:11:59.067Z,30.65
2018-03-08T21:14:27.590Z,31.50
2018-03-08T21:16:56.906Z,32.80
2018-03-08T21:19:25.496Z,32.13
2018-03-08T21:21:53.279Z,32.97
2018-03-08T21:24:21.862Z,32.33
2018-03-08T21:26:50.412Z,30.90
2018-03-08T21:29:18.176Z,32.47
2018-03-08T21:31:45.987Z,29.85
2018-03-08T21:34:13.744Z,29.35
2018-03-08T21:36:41.538Z,30.37
2018-03-08T21:39:09.373Z,29.58
2018-03-08T21:41:37.166Z,27.23
2018-03-08T21:44:04.923Z,25.85
2018-03-08T21:46:32.739Z,29.00
2018-03-08T21:49:01.271Z,25.37
2018-03-08T21:51:29.026Z,26.25
2018-03-08T21:53:56.852Z,29.05
2018-03-08T21:56:24.607Z,25.90
2018-03-08T21:58:53.124Z,27.83
2018-03-08T22:01:20.945Z,26.10
2018-03-08T22:03:49.482Z,24.95
2018-03-08T22:06:17.259Z,27.33
2018-03-08T22:08:45.835Z,25.75
2018-03-08T22:11:13.602Z,25.88
2018-03-08T22:13:42.124Z,24.98
2018-03-08T22:16:10.698Z,27.75
2018-03-08T22:18:39.213Z,26.10
2018-03-08T22:21:06.969Z,25.92
2018-03-08T22:23:34.795Z,25.88
2018-03-08T22:26:03.335Z,27.90
2018-03-08T22:28:31.095Z,26.20
2018-03-08T22:30:58.904Z,25.02
2018-03-08T22:33:27.426Z,25.88
2018-03-08T22:35:55.189Z,26.83
2018-03-08T22:38:22.999Z,26.60
2018-03-08T22:40:50.752Z,25.73
2018-03-08T22:43:18.514Z,26.98
2018-03-08T22:45:46.323Z,26.45
2018-03-08T22:48:14.075Z,22.50
2018-03-08T22:50:41.880Z,25.15
2018-03-08T22:53:09.681Z,24.85
2018-03-08T22:55:38.200Z,25.48
2018-03-08T22:58:05.958Z,24.70
2018-03-08T23:00:33.766Z,23.83
2018-03-08T23:03:07.228Z,25.88
2018-03-08T23:05:35.816Z,25.12
2018-03-08T23:08:03.580Z,24.75
2018-03-08T23:10:31.352Z,25.48
2018-03-08T23:12:59.156Z,27.92
2018-03-08T23:15:27.677Z,27.02
2018-03-08T23:17:55.434Z,30.35
2018-03-08T23:20:23.239Z,27.17
2018-03-08T23:22:51.779Z,29.58
2018-03-08T23:25:19.537Z,31.27
2018-03-08T23:27:47.351Z,25.95
2018-03-08T23:30:15.866Z,27.17
2018-03-08T23:32:43.632Z,26.48
2018-03-08T23:35:11.444Z,28.17
2018-03-08T23:37:39.208Z,25.30
2018-03-08T23:40:06.974Z,24.70
2018-03-08T23:42:34.787Z,26.25
2018-03-08T23:45:02.611Z,22.67
2018-03-08T23:47:31.132Z,22.13
2018-03-08T23:49:58.938Z,24.73
2018-03-08T23:52:27.463Z,23.30
2018-03-08T23:54:55.215Z,22.25
2018-03-08T23:57:23.056Z,19.05
2018-03-08T23:59:51.584Z,18.02
